createdAt,value
2022-08-17T00:00:06.923Z,88.45
2022-08-17T00:01:06.961Z,88.85
2022-08-17T00:02:25.155Z,88.65
2022-08-17T00:03:07.914Z,88.75
2022-08-17T00:04:10.733Z,88.55
2022-08-17T00:05:07.931Z,88.55
2022-08-17T00:06:06.891Z,88.45
2022-08-17T00:07:06.901Z,88.55
2022-08-17T00:08:06.877Z,88.55
2022-08-17T00:09:06.870Z,88.85
2022-08-17T00:10:06.893Z,88.55
2022-08-17T00:11:06.884Z,88.96
2022-08-17T00:12:43.237Z,88.25
2022-08-17T00:13:07.866Z,88.25
2022-08-17T00:14:06.844Z,87.84
2022-08-17T00:15:10.314Z,87.70
2022-08-17T00:16:06.849Z,88.21
2022-08-17T00:17:06.831Z,88.25
2022-08-17T00:19:01.941Z,87.81
2022-08-17T00:19:08.868Z,88.01
2022-08-17T00:20:07.821Z,87.84
2022-08-17T00:21:10.374Z,88.25
2022-08-17T00:22:34.207Z,88.04
2022-08-17T00:23:07.803Z,88.45
2022-08-17T00:24:06.805Z,88.65
2022-08-17T00:25:06.762Z,89.10
2022-08-17T00:26:06.786Z,89.00
2022-08-17T00:27:06.887Z,89.20
2022-08-17T00:28:06.759Z,89.16
2022-08-17T00:29:06.772Z,89.50
2022-08-17T00:30:06.782Z,89.20
2022-08-17T00:31:06.743Z,88.90
2022-08-17T00:33:16.005Z,89.20
2022-08-17T00:33:23.430Z,89.10
2022-08-17T00:34:07.794Z,89.10
2022-08-17T00:35:06.723Z,89.40
2022-08-17T00:36:06.727Z,89.50
2022-08-17T00:37:07.004Z,89.91
2022-08-17T00:38:06.711Z,89.61
2022-08-17T00:39:06.873Z,89.70
2022-08-17T00:40:06.736Z,89.85
2022-08-17T00:41:06.695Z,89.50
2022-08-17T00:42:06.692Z,89.54
2022-08-17T00:43:06.713Z,89.45
2022-08-17T00:44:06.676Z,89.61
2022-08-17T00:45:06.656Z,89.54
2022-08-17T00:46:06.732Z,89.61
2022-08-17T00:47:06.666Z,89.95
2022-08-17T00:48:06.687Z,89.85
2022-08-17T00:49:06.654Z,89.95
2022-08-17T00:50:06.649Z,89.61
2022-08-17T00:51:06.647Z,89.75
2022-08-17T00:52:10.880Z,90.16
2022-08-17T00:53:06.638Z,90.01
2022-08-17T00:54:06.632Z,89.70
2022-08-17T00:55:06.614Z,89.65
2022-08-17T00:56:06.612Z,89.54
2022-08-17T00:57:06.590Z,89.65
2022-08-17T00:58:06.598Z,89.34
2022-08-17T00:59:06.635Z,89.54
2022-08-17T01:00:06.586Z,89.85
2022-08-17T01:01:06.615Z,89.85
2022-08-17T01:02:06.587Z,89.75
2022-08-17T01:03:06.558Z,89.95
2022-08-17T01:04:06.565Z,89.54
2022-08-17T01:05:06.658Z,90.36
2022-08-17T01:06:06.559Z,90.40
2022-08-17T01:07:06.562Z,90.56
2022-08-17T01:08:06.539Z,90.91
2022-08-17T01:09:06.555Z,90.50
2022-08-17T01:10:06.583Z,90.40
2022-08-17T01:11:06.528Z,90.70
2022-08-17T01:12:06.532Z,90.80
2022-08-17T01:13:06.520Z,90.40
2022-08-17T01:14:06.507Z,91.41
2022-08-17T01:15:06.492Z,91.35
2022-08-17T01:16:06.590Z,91.11
2022-08-17T01:17:06.474Z,91.41
2022-08-17T01:18:06.498Z,91.41
2022-08-17T01:19:06.475Z,91.41
2022-08-17T01:20:06.472Z,91.41
2022-08-17T01:21:06.575Z,91.31
2022-08-17T01:22:06.471Z,91.46
2022-08-17T01:23:06.466Z,91.51
2022-08-17T01:24:06.443Z,91.31
2022-08-17T01:25:06.446Z,91.61
2022-08-17T01:26:06.435Z,91.31
2022-08-17T01:27:10.533Z,91.61
2022-08-17T01:28:06.442Z,91.35
2022-08-17T01:29:06.439Z,91.46
2022-08-17T01:30:06.426Z,91.05
2022-08-17T01:31:07.415Z,91.96
2022-08-17T01:32:06.420Z,91.35
2022-08-17T01:33:06.413Z,90.75
2022-08-17T01:34:06.401Z,90.95
2022-08-17T01:35:06.387Z,91.55
2022-08-17T01:36:06.384Z,90.84
2022-08-17T01:37:06.378Z,91.75
2022-08-17T01:38:06.408Z,91.55
2022-08-17T01:39:06.380Z,91.55
2022-08-17T01:40:06.460Z,91.15
2022-08-17T01:41:06.358Z,91.86
2022-08-17T01:42:06.372Z,91.15
2022-08-17T01:43:06.371Z,91.15
2022-08-17T01:44:06.352Z,91.55
2022-08-17T01:45:06.352Z,91.66
2022-08-17T01:46:06.327Z,91.35
2022-08-17T01:47:06.336Z,91.25
2022-08-17T01:48:06.344Z,91.75
2022-08-17T01:49:06.317Z,91.46
2022-08-17T01:50:06.305Z,91.55
2022-08-17T01:51:07.314Z,90.91
2022-08-17T01:52:06.315Z,90.80
2022-08-17T01:53:06.295Z,90.70
2022-08-17T01:54:06.296Z,90.50
2022-08-17T01:55:06.296Z,90.60
2022-08-17T01:56:06.263Z,90.60
2022-08-17T01:57:06.264Z,91.05
2022-08-17T01:58:08.128Z,90.54
2022-08-17T01:59:06.288Z,90.44
2022-08-17T02:00:06.352Z,90.95
2022-08-17T02:01:06.298Z,91.55
2022-08-17T02:02:06.245Z,90.84
2022-08-17T02:03:06.260Z,91.35
2022-08-17T02:04:06.238Z,90.84
2022-08-17T02:05:06.221Z,90.44
2022-08-17T02:06:06.218Z,90.84
2022-08-17T02:07:06.209Z,90.54
2022-08-17T02:08:06.244Z,90.44
2022-08-17T02:09:06.201Z,90.44
2022-08-17T02:10:06.195Z,90.64
2022-08-17T02:11:06.191Z,90.64
2022-08-17T02:12:38.986Z,90.44
2022-08-17T02:13:07.213Z,91.05
2022-08-17T02:14:06.190Z,91.55
2022-08-17T02:15:06.174Z,91.55
2022-08-17T02:16:06.160Z,91.55
2022-08-17T02:17:06.156Z,91.70
2022-08-17T02:18:06.175Z,91.70
2022-08-17T02:19:06.183Z,91.09
2022-08-17T02:20:06.163Z,91.60
2022-08-17T02:21:06.120Z,91.39
2022-08-17T02:22:06.125Z,91.60
2022-08-17T02:23:06.143Z,91.60
2022-08-17T02:24:06.130Z,92.00
2022-08-17T02:25:07.101Z,92.00
2022-08-17T02:26:06.101Z,92.14
2022-08-17T02:27:06.104Z,92.31
2022-08-17T02:28:06.087Z,92.82
2022-08-17T02:29:06.066Z,92.41
2022-08-17T02:30:06.095Z,93.06
2022-08-17T02:31:07.081Z,92.76
2022-08-17T02:32:06.077Z,93.37
2022-08-17T02:33:06.249Z,92.86
2022-08-17T02:34:06.055Z,92.96
2022-08-17T02:35:06.172Z,92.96
2022-08-17T02:36:06.056Z,92.96
2022-08-17T02:37:06.047Z,93.06
2022-08-17T02:38:06.033Z,92.00
2022-08-17T02:39:06.027Z,92.05
2022-08-17T02:40:06.125Z,91.80
2022-08-17T02:41:06.038Z,92.45
2022-08-17T02:42:06.011Z,92.25
2022-08-17T02:43:06.016Z,92.00
2022-08-17T02:44:06.031Z,92.14
2022-08-17T02:45:05.993Z,92.55
2022-08-17T02:46:06.126Z,92.35
2022-08-17T02:47:05.968Z,92.14
2022-08-17T02:48:05.984Z,91.85
2022-08-17T02:49:05.980Z,92.25
2022-08-17T02:50:05.963Z,92.14
2022-08-17T02:51:05.973Z,93.06
2022-08-17T02:52:05.996Z,92.76
2022-08-17T02:53:06.019Z,92.76
2022-08-17T02:54:41.442Z,92.86
2022-08-17T02:55:06.935Z,92.76
2022-08-17T02:56:05.931Z,93.06
2022-08-17T02:57:05.970Z,92.86
2022-08-17T02:58:05.928Z,91.85
2022-08-17T02:59:05.904Z,92.25
2022-08-17T03:00:05.918Z,92.05
2022-08-17T03:01:05.927Z,92.05
2022-08-17T03:02:05.948Z,91.74
2022-08-17T03:03:05.937Z,91.64
2022-08-17T03:04:05.883Z,91.34
2022-08-17T03:05:05.888Z,91.74
2022-08-17T03:06:05.879Z,92.14
2022-08-17T03:07:05.871Z,91.94
2022-08-17T03:08:05.900Z,92.40
2022-08-17T03:09:05.865Z,93.00
2022-08-17T03:10:05.853Z,92.90
2022-08-17T03:11:05.842Z,93.10
2022-08-17T03:12:05.855Z,92.80
2022-08-17T03:13:05.875Z,92.70
2022-08-17T03:14:05.867Z,92.80
2022-08-17T03:15:05.828Z,93.00
2022-08-17T03:16:05.836Z,92.70
2022-08-17T03:17:05.832Z,92.70
2022-08-17T03:18:05.810Z,93.00
2022-08-17T03:19:06.035Z,92.70
2022-08-17T03:20:05.812Z,92.60
2022-08-17T03:21:05.802Z,92.80
2022-08-17T03:22:36.504Z,92.80
2022-08-17T03:23:06.790Z,93.00
2022-08-17T03:24:08.703Z,92.80
2022-08-17T03:25:05.824Z,92.70
2022-08-17T03:26:05.769Z,92.94
2022-08-17T03:27:05.761Z,92.80
2022-08-17T03:28:05.751Z,92.74
2022-08-17T03:29:05.746Z,93.10
2022-08-17T03:30:05.852Z,93.61
2022-08-17T03:31:05.734Z,93.86
2022-08-17T03:32:05.735Z,93.76
2022-08-17T03:33:05.719Z,93.86
2022-08-17T03:34:05.717Z,94.46
2022-08-17T03:35:05.707Z,94.46
2022-08-17T03:36:05.720Z,94.37
2022-08-17T03:37:05.686Z,93.86
2022-08-17T03:38:05.694Z,94.17
2022-08-17T03:39:05.697Z,93.96
2022-08-17T03:40:05.787Z,94.26
2022-08-17T03:41:05.707Z,94.17
2022-08-17T03:42:05.686Z,93.96
2022-08-17T03:43:05.671Z,93.86
2022-08-17T03:44:05.668Z,94.31
2022-08-17T03:45:05.643Z,94.06
2022-08-17T03:46:05.846Z,93.65
2022-08-17T03:47:06.766Z,93.86
2022-08-17T03:48:05.667Z,94.06
2022-08-17T03:49:05.636Z,94.06
2022-08-17T03:50:10.338Z,94.21
2022-08-17T03:51:05.632Z,94.61
2022-08-17T03:52:05.646Z,94.41
2022-08-17T03:53:05.613Z,94.37
2022-08-17T03:54:05.606Z,94.41
2022-08-17T03:55:05.606Z,94.17
2022-08-17T03:56:05.612Z,94.51
2022-08-17T03:57:05.603Z,94.10
2022-08-17T03:58:05.659Z,94.17
2022-08-17T03:59:05.578Z,94.31
2022-08-17T04:00:05.583Z,94.31
2022-08-17T04:01:05.619Z,94.57
2022-08-17T04:02:05.615Z,94.46
2022-08-17T04:03:05.595Z,94.71
2022-08-17T04:04:05.548Z,94.61
2022-08-17T04:05:05.560Z,94.26
2022-08-17T04:06:05.593Z,94.21
2022-08-17T04:07:05.562Z,94.10
2022-08-17T04:08:05.515Z,94.41
2022-08-17T04:09:05.588Z,94.10
2022-08-17T04:10:05.545Z,94.10
2022-08-17T04:11:05.515Z,94.61
2022-08-17T04:12:05.661Z,94.41
2022-08-17T04:13:05.501Z,94.31
2022-08-17T04:14:05.515Z,94.61
2022-08-17T04:15:06.507Z,94.10
2022-08-17T04:16:05.488Z,94.10
2022-08-17T04:17:05.500Z,93.65
2022-08-17T04:18:07.354Z,93.96
2022-08-17T04:19:05.474Z,93.90
2022-08-17T04:20:05.551Z,94.21
2022-08-17T04:21:05.458Z,93.86
2022-08-17T04:22:05.473Z,93.90
2022-08-17T04:23:05.457Z,93.86
2022-08-17T04:24:05.447Z,94.41
2022-08-17T04:25:05.562Z,94.21
2022-08-17T04:26:05.434Z,94.82
2022-08-17T04:27:05.444Z,95.22
2022-08-17T04:28:05.428Z,94.98
2022-08-17T04:29:06.429Z,94.41
2022-08-17T04:30:05.398Z,94.17
2022-08-17T04:31:05.506Z,93.76
2022-08-17T04:32:05.402Z,93.45
2022-08-17T04:33:07.285Z,93.45
2022-08-17T04:34:06.381Z,94.37
2022-08-17T04:35:05.399Z,93.76
2022-08-17T04:36:05.487Z,94.06
2022-08-17T04:37:05.397Z,93.35
2022-08-17T04:38:05.361Z,93.45
2022-08-17T04:39:05.427Z,93.65
2022-08-17T04:40:05.397Z,93.61
2022-08-17T04:41:05.359Z,93.30
2022-08-17T04:42:05.366Z,92.70
2022-08-17T04:43:05.359Z,92.70
2022-08-17T04:44:05.323Z,92.60
2022-08-17T04:45:05.334Z,92.90
2022-08-17T04:46:05.323Z,93.10
2022-08-17T04:47:05.316Z,92.70
2022-08-17T04:48:06.317Z,93.06
2022-08-17T04:49:05.328Z,93.06
2022-08-17T04:50:05.293Z,93.30
2022-08-17T04:51:05.304Z,93.06
2022-08-17T04:52:05.287Z,92.76
2022-08-17T04:53:05.317Z,93.06
2022-08-17T04:54:05.293Z,92.76
2022-08-17T04:55:05.261Z,92.76
2022-08-17T04:56:05.258Z,92.86
2022-08-17T04:57:05.258Z,93.06
2022-08-17T04:58:05.292Z,92.96
2022-08-17T04:59:05.276Z,92.31
2022-08-17T05:00:05.223Z,92.41
2022-08-17T05:01:05.293Z,92.51
2022-08-17T05:02:05.246Z,92.36
2022-08-17T05:03:05.237Z,92.57
2022-08-17T05:04:26.893Z,92.16
2022-08-17T05:05:06.214Z,91.96
2022-08-17T05:06:05.222Z,91.51
2022-08-17T05:07:05.209Z,91.41
2022-08-17T05:08:05.246Z,91.31
2022-08-17T05:09:05.265Z,90.60
2022-08-17T05:10:05.194Z,91.11
2022-08-17T05:11:05.180Z,90.80
2022-08-17T05:12:05.192Z,91.41
2022-08-17T05:13:05.263Z,90.50
2022-08-17T05:14:05.180Z,90.80
2022-08-17T05:15:05.184Z,91.31
2022-08-17T05:16:05.156Z,91.47
2022-08-17T05:17:07.185Z,91.47
2022-08-17T05:18:05.150Z,91.57
2022-08-17T05:19:05.150Z,91.47
2022-08-17T05:20:05.242Z,90.16
2022-08-17T05:21:05.131Z,90.36
2022-08-17T05:22:05.119Z,89.81
2022-08-17T05:23:05.121Z,89.61
2022-08-17T05:24:09.691Z,88.90
2022-08-17T05:25:06.128Z,89.36
2022-08-17T05:26:05.115Z,89.26
2022-08-17T05:27:05.115Z,89.76
2022-08-17T05:28:05.090Z,89.16
2022-08-17T05:29:05.081Z,88.96
2022-08-17T05:30:05.078Z,88.75
2022-08-17T05:31:05.179Z,89.12
2022-08-17T05:32:05.055Z,89.01
2022-08-17T05:33:05.094Z,89.12
2022-08-17T05:34:05.062Z,89.62
2022-08-17T05:35:05.732Z,88.97
2022-08-17T05:36:05.048Z,88.47
2022-08-17T05:37:05.045Z,88.47
2022-08-17T05:38:05.021Z,87.96
2022-08-17T05:39:06.033Z,87.86
2022-08-17T05:40:05.082Z,88.17
2022-08-17T05:41:05.027Z,88.02
2022-08-17T05:42:05.038Z,87.21
2022-08-17T05:43:05.000Z,86.36
2022-08-17T05:44:05.404Z,85.92
2022-08-17T05:45:05.001Z,84.47
2022-08-17T05:46:04.989Z,84.03
2022-08-17T05:47:05.101Z,83.22
2022-08-17T05:48:06.030Z,82.82
2022-08-17T05:49:04.975Z,82.82
2022-08-17T05:50:09.890Z,82.71
2022-08-17T05:51:04.980Z,83.32
2022-08-17T05:52:04.974Z,83.72
2022-08-17T05:53:05.223Z,83.62
2022-08-17T05:54:04.932Z,83.93
2022-08-17T05:55:04.941Z,83.32
2022-08-17T05:56:04.971Z,83.42
2022-08-17T05:57:04.934Z,83.72
2022-08-17T05:58:05.163Z,84.23
2022-08-17T05:59:04.950Z,83.32
2022-08-17T06:00:04.920Z,83.48
2022-08-17T06:01:04.968Z,83.59
2022-08-17T06:02:04.912Z,84.43
2022-08-17T06:03:04.903Z,84.13
2022-08-17T06:04:05.014Z,83.62
2022-08-17T06:05:04.891Z,83.52
2022-08-17T06:06:04.870Z,83.79
2022-08-17T06:07:04.871Z,82.98
2022-08-17T06:08:04.874Z,82.88
2022-08-17T06:09:04.984Z,82.74
2022-08-17T06:10:04.863Z,82.94
2022-08-17T06:11:04.838Z,82.74
2022-08-17T06:12:05.742Z,83.14
2022-08-17T06:13:04.885Z,82.74
2022-08-17T06:14:04.829Z,82.54
2022-08-17T06:15:04.945Z,83.14
2022-08-17T06:16:04.859Z,83.25
2022-08-17T06:17:05.842Z,83.04
2022-08-17T06:18:04.830Z,82.24
2022-08-17T06:19:04.818Z,82.84
2022-08-17T06:20:05.041Z,82.50
2022-08-17T06:21:04.795Z,82.14
2022-08-17T06:22:04.792Z,81.99
2022-08-17T06:23:04.799Z,81.70
2022-08-17T06:24:04.789Z,81.59
2022-08-17T06:25:04.801Z,81.59
2022-08-17T06:26:05.853Z,82.06
2022-08-17T06:27:04.772Z,80.91
2022-08-17T06:28:04.754Z,80.17
2022-08-17T06:29:04.763Z,79.13
2022-08-17T06:30:04.763Z,78.45
2022-08-17T06:31:04.779Z,77.05
2022-08-17T06:32:04.727Z,76.47
2022-08-17T06:33:04.744Z,74.60
2022-08-17T06:34:04.728Z,73.33
2022-08-17T06:35:04.742Z,71.59
2022-08-17T06:36:09.244Z,69.53
2022-08-17T06:37:04.830Z,67.76
2022-08-17T06:38:04.708Z,66.50
2022-08-17T06:39:04.709Z,65.57
2022-08-17T06:40:04.763Z,64.94
2022-08-17T06:41:04.709Z,64.25
2022-08-17T06:42:04.734Z,65.20
2022-08-17T06:43:06.523Z,66.24
2022-08-17T06:44:04.686Z,66.90
2022-08-17T06:45:04.679Z,66.17
2022-08-17T06:46:04.670Z,64.51
2022-08-17T06:47:04.671Z,62.01
2022-08-17T06:48:04.775Z,59.74
2022-08-17T06:49:04.663Z,58.46
2022-08-17T06:50:04.681Z,57.09
2022-08-17T06:51:04.763Z,54.69
2022-08-17T06:52:05.617Z,54.63
2022-08-17T06:55:19.128Z,50.29
2022-08-17T06:56:18.766Z,50.09
2022-08-17T06:57:18.763Z,51.84
2022-08-17T06:58:18.748Z,50.88
2022-08-17T06:59:19.359Z,51.57
2022-08-17T07:00:19.876Z,52.41
2022-08-17T07:01:20.027Z,53.70
2022-08-17T07:02:19.833Z,56.38
2022-08-17T07:03:20.803Z,57.55
2022-08-17T07:04:19.839Z,59.19
2022-08-17T07:05:19.825Z,59.56
2022-08-17T07:06:20.805Z,60.58
2022-08-17T07:07:19.815Z,60.74
2022-08-17T07:08:19.846Z,62.23
2022-08-17T07:09:19.802Z,62.34
2022-08-17T07:10:19.807Z,61.80
2022-08-17T07:11:19.820Z,62.70
2022-08-17T07:12:19.789Z,61.61
2022-08-17T07:13:19.782Z,59.83
2022-08-17T07:14:19.776Z,59.58
2022-08-17T07:15:19.777Z,56.00
2022-08-17T07:16:19.804Z,54.61
2022-08-17T07:17:19.864Z,52.85
2022-08-17T07:18:19.732Z,50.95
2022-08-17T07:19:19.785Z,50.21
2022-08-17T07:20:19.741Z,48.71
2022-08-17T07:21:22.968Z,48.79
2022-08-17T07:22:20.769Z,48.45
2022-08-17T07:23:19.746Z,47.49
2022-08-17T07:24:29.457Z,47.86
2022-08-17T07:25:20.881Z,45.39
2022-08-17T07:26:19.718Z,45.15
2022-08-17T07:27:19.736Z,43.76
2022-08-17T07:28:19.723Z,43.23
2022-08-17T07:29:19.697Z,41.74
2022-08-17T07:30:19.695Z,41.56
2022-08-17T07:31:19.692Z,42.46
2022-08-17T07:32:19.717Z,43.13
2022-08-17T07:33:19.704Z,41.76
2022-08-17T07:34:19.689Z,43.23
2022-08-17T07:35:20.022Z,42.74
2022-08-17T07:36:19.683Z,42.95
2022-08-17T07:37:19.692Z,43.27
2022-08-17T07:38:25.701Z,42.95
2022-08-17T07:39:19.657Z,42.78
2022-08-17T07:40:19.703Z,42.97
2022-08-17T07:41:19.647Z,42.76
2022-08-17T07:42:19.642Z,43.42
2022-08-17T07:43:23.144Z,41.74
2022-08-17T07:44:19.619Z,41.82
2022-08-17T07:45:19.629Z,41.02
2022-08-17T07:46:19.615Z,41.09
2022-08-17T07:47:19.634Z,39.90
2022-08-17T07:48:19.624Z,38.53
2022-08-17T07:49:19.675Z,39.31
2022-08-17T07:50:22.698Z,40.86
2022-08-17T07:51:20.614Z,38.75
2022-08-17T07:52:24.806Z,41.50
2022-08-17T07:53:19.585Z,40.86
2022-08-17T07:54:19.582Z,38.69
2022-08-17T07:55:19.616Z,39.49
2022-08-17T07:56:19.575Z,38.77
2022-08-17T07:57:19.574Z,38.85
2022-08-17T07:58:19.553Z,38.17
2022-08-17T07:59:23.049Z,37.97
2022-08-17T08:00:19.670Z,38.10
2022-08-17T08:01:20.550Z,38.57
2022-08-17T08:02:19.598Z,37.91
2022-08-17T08:03:19.625Z,38.40
2022-08-17T08:04:25.841Z,38.57
2022-08-17T08:05:48.856Z,40.31
2022-08-17T08:06:20.520Z,40.19
2022-08-17T08:07:19.548Z,40.84
2022-08-17T08:08:19.528Z,38.35
2022-08-17T08:09:19.519Z,37.83
2022-08-17T08:10:19.486Z,38.01
2022-08-17T08:11:19.513Z,37.41
2022-08-17T08:12:19.515Z,37.48
2022-08-17T08:13:19.519Z,38.05
2022-08-17T08:14:19.477Z,38.13
2022-08-17T08:15:19.479Z,38.44
2022-08-17T08:16:19.476Z,36.12
2022-08-17T08:17:19.495Z,37.43
2022-08-17T08:18:19.499Z,38.71
2022-08-17T08:19:21.167Z,39.53
2022-08-17T08:20:51.485Z,39.39
2022-08-17T08:21:20.451Z,38.12
2022-08-17T08:22:19.456Z,37.15
2022-08-17T08:23:19.464Z,38.69
2022-08-17T08:24:19.443Z,37.60
2022-08-17T08:25:19.431Z,37.71
2022-08-17T08:26:19.414Z,39.12
2022-08-17T08:27:19.447Z,38.16
2022-08-17T08:28:19.447Z,39.92
2022-08-17T08:29:19.412Z,40.21
2022-08-17T08:30:19.420Z,38.75
2022-08-17T08:31:19.400Z,38.92
2022-08-17T08:32:19.404Z,38.34
2022-08-17T08:33:19.568Z,38.82
2022-08-17T08:34:55.877Z,39.43
2022-08-17T08:35:19.389Z,39.20
2022-08-17T08:37:12.668Z,38.49
2022-08-17T08:37:30.370Z,37.76
2022-08-17T08:38:20.377Z,36.71
2022-08-17T08:39:19.357Z,33.84
2022-08-17T08:40:19.387Z,35.47
2022-08-17T08:41:19.348Z,34.98
2022-08-17T08:42:19.337Z,35.64
2022-08-17T08:43:19.604Z,36.50
2022-08-17T08:44:19.412Z,35.76
2022-08-17T08:45:19.348Z,37.60
2022-08-17T08:46:19.669Z,38.22
2022-08-17T08:47:19.324Z,38.84
2022-08-17T08:48:52.890Z,39.75
2022-08-17T08:49:29.705Z,40.68
2022-08-17T08:50:37.666Z,38.84
2022-08-17T08:51:19.290Z,39.23
2022-08-17T08:52:19.285Z,42.74
2022-08-17T08:53:19.301Z,41.76
2022-08-17T08:54:26.213Z,42.46
2022-08-17T08:55:19.285Z,41.76
2022-08-17T08:56:19.277Z,38.77
2022-08-17T08:57:25.612Z,39.88
2022-08-17T08:58:41.029Z,40.48
2022-08-17T08:59:20.275Z,42.25
2022-08-17T09:00:19.402Z,41.56
2022-08-17T09:01:19.324Z,41.80
2022-08-17T09:02:19.351Z,41.23
2022-08-17T09:03:19.244Z,42.52
2022-08-17T09:04:24.542Z,43.55
2022-08-17T09:05:20.372Z,45.41
2022-08-17T09:06:37.889Z,41.62
2022-08-17T09:07:20.246Z,41.80
2022-08-17T09:08:19.237Z,41.42
2022-08-17T09:09:19.223Z,41.27
2022-08-17T09:10:19.193Z,42.29
2022-08-17T09:11:19.244Z,41.80
2022-08-17T09:12:19.254Z,43.18
2022-08-17T09:13:19.210Z,44.47
2022-08-17T09:14:21.484Z,43.14
2022-08-17T09:15:19.209Z,44.71
2022-08-17T09:16:19.202Z,43.53
2022-08-17T09:17:19.220Z,44.22
2022-08-17T09:19:00.039Z,44.22
2022-08-17T09:19:21.155Z,45.42
2022-08-17T09:20:28.388Z,46.01
2022-08-17T09:21:20.345Z,44.93
2022-08-17T09:22:19.182Z,44.02
2022-08-17T09:23:19.165Z,43.51
2022-08-17T09:24:20.756Z,43.66
2022-08-17T09:25:19.125Z,42.45
2022-08-17T09:26:19.128Z,41.09
2022-08-17T09:27:19.210Z,41.68
2022-08-17T09:28:19.133Z,41.58
2022-08-17T09:29:19.113Z,43.55
2022-08-17T09:30:19.116Z,43.55
2022-08-17T09:31:19.109Z,41.11
2022-08-17T09:32:19.212Z,39.82
2022-08-17T09:33:19.226Z,38.32
2022-08-17T09:34:19.108Z,37.91
2022-08-17T09:35:19.140Z,36.28
2022-08-17T09:36:19.091Z,33.88
2022-08-17T09:37:19.092Z,34.14
2022-08-17T09:38:19.204Z,34.03
2022-08-17T09:39:19.075Z,35.50
2022-08-17T09:40:19.260Z,35.94
2022-08-17T09:41:19.086Z,37.02
2022-08-17T09:42:19.103Z,36.04
2022-08-17T09:43:19.085Z,37.63
2022-08-17T09:44:23.280Z,38.06
2022-08-17T09:45:51.954Z,38.55
2022-08-17T09:46:19.008Z,38.87
2022-08-17T09:47:19.027Z,38.89
2022-08-17T09:48:19.016Z,39.59
2022-08-17T09:49:24.619Z,38.73
2022-08-17T09:50:19.004Z,40.33
2022-08-17T09:51:19.009Z,40.06
2022-08-17T09:52:19.016Z,41.86
2022-08-17T09:53:18.987Z,43.13
2022-08-17T09:54:38.160Z,41.84
2022-08-17T09:55:19.975Z,41.17
2022-08-17T09:56:18.964Z,41.08
2022-08-17T09:57:29.899Z,41.39
2022-08-17T09:58:19.953Z,42.25
2022-08-17T09:59:18.956Z,40.09
2022-08-17T10:00:19.001Z,41.51
2022-08-17T10:01:18.993Z,40.53
2022-08-17T10:02:18.924Z,41.78
2022-08-17T10:03:18.948Z,41.17
2022-08-17T10:04:20.342Z,42.25
2022-08-17T10:05:19.951Z,41.17
2022-08-17T10:06:22.101Z,42.43
2022-08-17T10:07:18.914Z,42.25
2022-08-17T10:08:21.838Z,41.55
2022-08-17T10:09:18.917Z,41.74
2022-08-17T10:10:18.923Z,39.09
2022-08-17T10:11:18.927Z,39.98
2022-08-17T10:12:18.909Z,39.88
2022-08-17T10:13:18.922Z,38.43
2022-08-17T10:14:36.584Z,40.48
2022-08-17T10:15:19.934Z,40.41
2022-08-17T10:16:18.881Z,39.94
2022-08-17T10:17:18.865Z,39.92
2022-08-17T10:18:18.874Z,40.00
2022-08-17T10:19:18.847Z,40.37
2022-08-17T10:20:18.863Z,40.58
2022-08-17T10:21:18.889Z,39.92
2022-08-17T10:22:35.244Z,41.11
2022-08-17T10:23:19.845Z,40.43
2022-08-17T10:24:18.830Z,40.03
2022-08-17T10:25:22.695Z,42.68
2022-08-17T10:26:18.846Z,41.03
2022-08-17T10:27:18.842Z,41.86
2022-08-17T10:28:19.859Z,42.18
2022-08-17T10:29:18.812Z,42.99
2022-08-17T10:30:18.811Z,42.49
2022-08-17T10:31:34.269Z,43.01
2022-08-17T10:32:20.853Z,42.61
2022-08-17T10:33:18.799Z,43.30
2022-08-17T10:34:18.784Z,45.54
2022-08-17T10:35:18.798Z,45.76
2022-08-17T10:36:18.787Z,43.99
2022-08-17T10:37:18.779Z,44.26
2022-08-17T10:38:18.779Z,43.20
2022-08-17T10:39:18.769Z,44.07
2022-08-17T10:40:18.773Z,45.54
2022-08-17T10:41:18.758Z,43.38
2022-08-17T10:42:32.391Z,42.12
2022-08-17T10:43:19.758Z,43.01
2022-08-17T10:44:37.210Z,42.20
2022-08-17T10:45:18.739Z,44.05
2022-08-17T10:46:31.297Z,42.67
2022-08-17T10:47:19.747Z,43.46
2022-08-17T10:48:18.710Z,42.57
2022-08-17T10:49:18.711Z,44.17
2022-08-17T10:50:18.717Z,43.48
2022-08-17T10:51:18.705Z,44.36
2022-08-17T10:52:18.697Z,44.76
2022-08-17T10:53:20.031Z,44.64
2022-08-17T10:54:19.682Z,44.83
2022-08-17T10:55:18.687Z,45.52
2022-08-17T10:56:18.683Z,46.11
2022-08-17T10:57:18.668Z,44.05
2022-08-17T10:58:18.793Z,45.03
2022-08-17T10:59:18.667Z,44.93
2022-08-17T11:00:18.663Z,45.25
2022-08-17T11:01:18.702Z,43.87
2022-08-17T11:02:18.641Z,45.25
2022-08-17T11:03:18.648Z,47.02
2022-08-17T11:04:18.704Z,45.84
2022-08-17T11:05:18.655Z,47.09
2022-08-17T11:06:18.615Z,44.76
2022-08-17T11:07:18.660Z,44.98
2022-08-17T11:08:18.628Z,45.37
2022-08-17T11:09:18.646Z,45.15
2022-08-17T11:10:18.598Z,46.45
2022-08-17T11:11:18.602Z,47.24
2022-08-17T11:12:18.597Z,47.04
2022-08-17T11:13:18.601Z,48.32
2022-08-17T11:14:18.585Z,47.34
2022-08-17T11:15:18.706Z,47.46
2022-08-17T11:16:18.577Z,46.08
2022-08-17T11:17:18.592Z,47.24
2022-08-17T11:18:18.556Z,48.54
2022-08-17T11:19:18.559Z,45.78
2022-08-17T11:20:18.601Z,44.33
2022-08-17T11:21:18.538Z,45.21
2022-08-17T11:22:18.551Z,45.21
2022-08-17T11:23:18.551Z,46.69
2022-08-17T11:24:18.535Z,46.59
2022-08-17T11:25:18.528Z,48.96
2022-08-17T11:26:18.551Z,47.28
2022-08-17T11:27:18.511Z,46.03
2022-08-17T11:28:18.505Z,48.10
2022-08-17T11:29:18.505Z,46.52
2022-08-17T11:30:18.501Z,46.32
2022-08-17T11:31:18.507Z,46.91
2022-08-17T11:32:18.487Z,48.29
2022-08-17T11:33:18.483Z,47.01
2022-08-17T11:34:18.493Z,45.83
2022-08-17T11:35:18.487Z,46.00
2022-08-17T11:36:18.468Z,46.72
2022-08-17T11:37:18.510Z,45.31
2022-08-17T11:38:18.456Z,45.90
2022-08-17T11:39:18.438Z,45.43
2022-08-17T11:40:18.521Z,45.14
2022-08-17T11:41:18.437Z,45.31
2022-08-17T11:42:18.470Z,46.10
2022-08-17T11:43:18.435Z,45.78
2022-08-17T11:44:18.418Z,46.67
2022-08-17T11:45:31.737Z,46.84
2022-08-17T11:46:18.421Z,46.45
2022-08-17T11:47:18.409Z,46.33
2022-08-17T11:48:27.635Z,48.30
2022-08-17T11:49:20.414Z,45.62
2022-08-17T11:50:18.403Z,47.19
2022-08-17T11:51:18.387Z,47.29
2022-08-17T11:52:18.404Z,46.21
2022-08-17T11:53:18.488Z,48.08
2022-08-17T11:54:34.770Z,45.92
2022-08-17T11:55:35.470Z,46.41
2022-08-17T11:56:18.370Z,46.01
2022-08-17T11:57:18.348Z,44.95
2022-08-17T11:58:18.349Z,45.74
2022-08-17T11:59:18.377Z,47.22
2022-08-17T12:00:18.347Z,46.92
2022-08-17T12:01:18.349Z,45.86
2022-08-17T12:02:18.337Z,45.17
2022-08-17T12:03:18.392Z,47.24
2022-08-17T12:04:18.512Z,47.44
2022-08-17T12:05:18.316Z,47.14
2022-08-17T12:06:18.321Z,47.14
2022-08-17T12:07:18.302Z,47.44
2022-08-17T12:08:18.311Z,48.32
2022-08-17T12:09:18.300Z,47.16
2022-08-17T12:10:18.399Z,47.66
2022-08-17T12:11:18.289Z,45.90
2022-08-17T12:12:18.287Z,47.48
2022-08-17T12:13:18.295Z,47.50
2022-08-17T12:14:22.446Z,47.11
2022-08-17T12:15:19.284Z,48.39
2022-08-17T12:16:18.254Z,45.93
2022-08-17T12:17:25.881Z,46.03
2022-08-17T12:18:19.240Z,46.12
2022-08-17T12:19:18.235Z,47.38
2022-08-17T12:20:18.246Z,47.90
2022-08-17T12:21:18.331Z,47.97
2022-08-17T12:22:19.258Z,48.47
2022-08-17T12:23:18.207Z,48.10
2022-08-17T12:24:18.217Z,48.98
2022-08-17T12:25:18.228Z,48.19
2022-08-17T12:26:18.223Z,49.67
2022-08-17T12:27:18.204Z,48.29
2022-08-17T12:28:20.095Z,49.10
2022-08-17T12:29:35.182Z,48.71
2022-08-17T12:30:19.299Z,48.32
2022-08-17T12:31:18.179Z,48.32
2022-08-17T12:32:18.182Z,49.33
2022-08-17T12:33:27.902Z,48.81
2022-08-17T12:34:18.170Z,47.65
2022-08-17T12:35:18.146Z,49.43
2022-08-17T12:36:18.267Z,49.13
2022-08-17T12:37:18.137Z,49.74
2022-08-17T12:38:32.263Z,49.05
2022-08-17T12:39:21.204Z,49.08
2022-08-17T12:40:18.120Z,49.57
2022-08-17T12:41:18.158Z,49.57
2022-08-17T12:42:18.126Z,51.94
2022-08-17T12:43:18.119Z,49.48
2022-08-17T12:44:18.111Z,48.88
2022-08-17T12:45:18.104Z,51.05
2022-08-17T12:46:18.114Z,50.34
2022-08-17T12:47:21.974Z,52.11
2022-08-17T12:48:19.089Z,51.52
2022-08-17T12:49:18.068Z,51.52
2022-08-17T12:50:28.764Z,51.52
2022-08-17T12:51:18.058Z,52.51
2022-08-17T12:52:18.067Z,52.21
2022-08-17T12:53:18.059Z,48.36
2022-08-17T12:54:18.040Z,50.12